createdAt,value
2022-10-10T00:00:22.613Z,2.22
2022-10-10T00:02:52.496Z,2.25
2022-10-10T00:05:19.106Z,2.20
2022-10-10T00:07:45.549Z,2.78
2022-10-10T00:10:11.943Z,2.80
2022-10-10T00:12:38.363Z,2.42
2022-10-10T00:15:05.658Z,2.40
2022-10-10T00:17:32.073Z,2.50
2022-10-10T00:19:58.512Z,2.30
2022-10-10T00:22:27.273Z,2.45
2022-10-10T00:24:53.723Z,2.53
2022-10-10T00:27:20.140Z,2.50
2022-10-10T00:29:46.555Z,2.28
2022-10-10T00:32:12.972Z,2.40
2022-10-10T00:34:39.400Z,2.47
2022-10-10T00:37:05.823Z,2.67
2022-10-10T00:39:32.355Z,2.35
2022-10-10T00:41:58.822Z,2.40
2022-10-10T00:44:27.449Z,2.47
2022-10-10T00:46:53.879Z,2.35
2022-10-10T00:49:25.315Z,2.58
2022-10-10T00:51:56.898Z,7.95
2022-10-10T00:54:24.716Z,7.65
2022-10-10T00:56:53.120Z,8.93
2022-10-10T00:59:22.836Z,34.63
2022-10-10T01:01:49.330Z,11.88
2022-10-10T01:04:36.946Z,5.30
2022-10-10T01:07:11.446Z,5.85
2022-10-10T01:09:43.025Z,19.02
2022-10-10T01:12:43.601Z,19.23
2022-10-10T01:16:00.859Z,18.08
2022-10-10T01:18:41.287Z,4.68
2022-10-10T01:21:13.834Z,5.90
2022-10-10T01:23:46.167Z,4.30
2022-10-10T01:26:30.644Z,3.83
2022-10-10T01:29:15.794Z,7.53
2022-10-10T01:31:46.322Z,3.33
2022-10-10T01:34:15.684Z,5.38
2022-10-10T01:37:04.578Z,3.70
2022-10-10T01:39:53.198Z,3.00
2022-10-10T01:42:25.728Z,2.45
2022-10-10T01:44:53.962Z,2.75
2022-10-10T01:47:22.186Z,2.40
2022-10-10T01:49:55.514Z,2.97
2022-10-10T01:52:46.681Z,2.95
2022-10-10T01:56:07.629Z,3.13
2022-10-10T01:59:06.209Z,2.42
2022-10-10T02:01:38.702Z,2.60
2022-10-10T02:04:27.380Z,2.70
2022-10-10T02:07:00.467Z,3.10
2022-10-10T02:09:34.906Z,2.90
2022-10-10T02:12:02.601Z,3.10
2022-10-10T02:14:37.719Z,3.63
2022-10-10T02:17:07.867Z,2.45
2022-10-10T02:19:35.094Z,2.33
2022-10-10T02:22:04.788Z,2.55
2022-10-10T02:24:31.375Z,2.72
2022-10-10T02:27:12.282Z,2.40
2022-10-10T02:29:42.456Z,2.30
2022-10-10T02:32:26.774Z,2.40
2022-10-10T02:34:57.847Z,2.70
2022-10-10T02:37:25.509Z,2.50
2022-10-10T02:39:58.151Z,2.47
2022-10-10T02:42:27.115Z,3.00
2022-10-10T02:44:54.776Z,2.90
2022-10-10T02:47:21.275Z,2.58
2022-10-10T02:49:51.944Z,3.08
2022-10-10T02:52:20.895Z,2.33
2022-10-10T02:54:47.360Z,3.05
2022-10-10T02:57:13.929Z,3.05
2022-10-10T02:59:40.449Z,3.60
2022-10-10T03:02:07.839Z,3.40
2022-10-10T03:04:36.127Z,3.40
2022-10-10T03:07:03.870Z,3.35
2022-10-10T03:09:30.331Z,4.28
2022-10-10T03:11:59.083Z,3.83
2022-10-10T03:14:25.839Z,3.90
2022-10-10T03:16:53.053Z,3.35
2022-10-10T03:19:19.497Z,3.35
2022-10-10T03:21:45.922Z,3.67
2022-10-10T03:24:12.630Z,3.05
2022-10-10T03:26:39.097Z,2.97
2022-10-10T03:29:08.268Z,3.10
2022-10-10T03:31:34.674Z,3.10
2022-10-10T03:34:01.781Z,3.42
2022-10-10T03:36:28.287Z,2.88
2022-10-10T03:38:57.126Z,3.13
2022-10-10T03:41:25.908Z,2.80
2022-10-10T03:43:52.364Z,2.97
2022-10-10T03:46:19.010Z,3.17
2022-10-10T03:48:45.493Z,3.17
2022-10-10T03:51:12.158Z,3.30
2022-10-10T03:53:39.137Z,3.22
2022-10-10T03:56:05.857Z,4.47
2022-10-10T03:58:32.402Z,3.72
2022-10-10T04:01:01.409Z,3.40
2022-10-10T04:03:29.048Z,3.70
2022-10-10T04:05:55.998Z,3.42
2022-10-10T04:08:25.486Z,4.95
2022-10-10T04:10:53.170Z,4.63
2022-10-10T04:13:20.876Z,4.03
2022-10-10T04:15:51.010Z,3.80
2022-10-10T04:18:17.910Z,3.65
2022-10-10T04:20:44.426Z,2.80
2022-10-10T04:23:10.874Z,3.00
2022-10-10T04:25:37.301Z,3.35
2022-10-10T04:28:03.974Z,3.17
2022-10-10T04:30:33.461Z,3.22
2022-10-10T04:33:01.998Z,3.13
2022-10-10T04:35:28.698Z,2.90
2022-10-10T04:37:55.125Z,3.78
2022-10-10T04:40:26.239Z,2.92
2022-10-10T04:42:53.597Z,3.63
2022-10-10T04:45:20.326Z,3.38
2022-10-10T04:47:46.793Z,3.05
2022-10-10T04:50:13.225Z,2.92
2022-10-10T04:52:39.667Z,3.13
2022-10-10T04:55:06.247Z,2.83
2022-10-10T04:57:35.200Z,2.55
2022-10-10T05:00:01.828Z,2.80
2022-10-10T05:02:28.335Z,2.67
2022-10-10T05:04:54.776Z,3.45
2022-10-10T05:07:21.343Z,2.70
2022-10-10T05:09:47.855Z,2.92
2022-10-10T05:12:14.328Z,3.25
2022-10-10T05:14:44.615Z,3.25
2022-10-10T05:17:13.947Z,3.77
2022-10-10T05:19:45.312Z,3.45
2022-10-10T05:22:11.701Z,4.05
2022-10-10T05:24:38.199Z,4.57
2022-10-10T05:27:04.607Z,5.00
2022-10-10T05:29:33.479Z,5.90
2022-10-10T05:31:59.910Z,6.20
2022-10-10T05:34:28.685Z,4.10
2022-10-10T05:36:58.021Z,4.03
2022-10-10T05:39:24.464Z,5.22
2022-10-10T05:41:50.941Z,4.82
2022-10-10T05:44:17.413Z,6.18
2022-10-10T05:46:43.798Z,6.97
2022-10-10T05:49:10.210Z,14.10
2022-10-10T05:51:36.693Z,8.68
2022-10-10T05:54:05.451Z,8.10
2022-10-10T05:56:31.982Z,8.00
2022-10-10T05:58:58.387Z,9.07
2022-10-10T06:01:26.824Z,8.68
2022-10-10T06:03:55.988Z,7.43
2022-10-10T06:06:24.182Z,5.75
2022-10-10T06:08:50.956Z,5.25
2022-10-10T06:11:19.172Z,5.35
2022-10-10T06:13:47.311Z,5.10
2022-10-10T06:16:13.740Z,5.50
2022-10-10T06:18:40.177Z,4.75
2022-10-10T06:21:07.878Z,3.95
2022-10-10T06:23:34.813Z,4.93
2022-10-10T06:26:01.254Z,4.53
2022-10-10T06:28:27.882Z,5.30
2022-10-10T06:30:54.436Z,5.20
2022-10-10T06:33:20.888Z,4.82
2022-10-10T06:35:48.955Z,4.78
2022-10-10T06:38:19.345Z,5.45
2022-10-10T06:40:48.463Z,4.82
2022-10-10T06:43:16.516Z,5.90
2022-10-10T06:45:46.276Z,5.00
2022-10-10T06:48:15.439Z,5.72
2022-10-10T06:50:44.404Z,5.00
2022-10-10T06:53:13.228Z,4.78
2022-10-10T06:55:47.054Z,4.40
2022-10-10T07:00:41.195Z,4.18
2022-10-10T07:03:12.674Z,4.07
2022-10-10T07:05:41.595Z,4.15
2022-10-10T07:08:09.637Z,3.90
2022-10-10T07:10:36.834Z,4.00
2022-10-10T07:13:03.245Z,4.22
2022-10-10T07:15:29.655Z,3.60
2022-10-10T07:17:58.557Z,3.20
2022-10-10T07:20:25.855Z,3.40
2022-10-10T07:22:52.736Z,3.88
2022-10-10T07:25:19.512Z,3.40
2022-10-10T07:27:45.961Z,3.63
2022-10-10T07:30:15.199Z,3.38
2022-10-10T07:32:41.968Z,3.42
2022-10-10T07:35:08.625Z,3.42
2022-10-10T07:37:35.130Z,3.67
2022-10-10T07:40:08.521Z,4.07
2022-10-10T07:42:35.725Z,3.83
2022-10-10T07:45:02.159Z,4.20
2022-10-10T07:47:29.033Z,3.70
2022-10-10T07:49:55.435Z,4.32
2022-10-10T07:52:21.903Z,4.45
2022-10-10T07:54:48.370Z,4.20
2022-10-10T07:57:14.759Z,3.88
2022-10-10T07:59:41.195Z,3.95
2022-10-10T08:02:09.498Z,5.10
2022-10-10T08:04:36.171Z,4.88
2022-10-10T08:07:04.865Z,5.05
2022-10-10T08:09:31.289Z,4.30
2022-10-10T08:11:57.690Z,5.95
2022-10-10T08:14:24.181Z,4.80
2022-10-10T08:16:50.661Z,4.60
2022-10-10T08:19:17.139Z,4.53
2022-10-10T08:21:43.582Z,4.53
2022-10-10T08:24:10.075Z,4.47
2022-10-10T08:26:36.503Z,3.97
2022-10-10T08:29:05.127Z,4.50
2022-10-10T08:31:31.558Z,4.30
2022-10-10T08:33:57.979Z,4.68
2022-10-10T08:36:25.229Z,4.40
2022-10-10T08:38:57.066Z,4.60
2022-10-10T08:41:29.443Z,4.78
2022-10-10T08:44:04.713Z,5.47
2022-10-10T08:46:36.957Z,5.40
2022-10-10T08:49:16.602Z,4.63
2022-10-10T08:51:49.592Z,5.50
2022-10-10T08:54:17.873Z,5.85
2022-10-10T08:56:44.686Z,5.05
2022-10-10T08:59:29.276Z,4.70
2022-10-10T09:02:18.622Z,4.40
2022-10-10T09:04:48.465Z,3.95
2022-10-10T09:07:25.986Z,3.78
2022-10-10T09:10:11.246Z,4.55
2022-10-10T09:12:46.750Z,3.78
2022-10-10T09:15:35.197Z,4.63
2022-10-10T09:18:18.315Z,4.72
2022-10-10T09:21:03.531Z,4.22
2022-10-10T09:23:54.963Z,4.05
2022-10-10T09:26:26.729Z,4.20
2022-10-10T09:29:06.024Z,4.45
2022-10-10T09:31:42.001Z,4.30
2022-10-10T09:34:21.261Z,4.30
2022-10-10T09:36:48.613Z,4.28
2022-10-10T09:39:27.335Z,4.28
2022-10-10T09:41:57.957Z,4.13
2022-10-10T09:44:26.952Z,3.85
2022-10-10T09:46:53.838Z,3.88
2022-10-10T09:49:21.356Z,3.75
2022-10-10T09:51:49.367Z,3.90
2022-10-10T09:54:19.288Z,3.92
2022-10-10T09:56:56.709Z,3.53
2022-10-10T09:59:42.729Z,4.22
2022-10-10T10:02:23.930Z,3.28
2022-10-10T10:04:53.928Z,3.88
2022-10-10T10:07:28.229Z,3.63
2022-10-10T10:09:59.202Z,3.38
2022-10-10T10:12:37.396Z,3.45
2022-10-10T10:15:07.155Z,3.67
2022-10-10T10:17:33.830Z,3.38
2022-10-10T10:20:02.952Z,3.40
2022-10-10T10:22:41.617Z,3.10
2022-10-10T10:25:31.309Z,3.13
2022-10-10T10:28:10.377Z,2.85
2022-10-10T10:30:38.377Z,3.08
2022-10-10T10:33:43.365Z,3.00
2022-10-10T10:36:28.542Z,2.70
2022-10-10T10:39:14.155Z,3.08
2022-10-10T10:41:55.916Z,2.83
2022-10-10T10:44:45.252Z,3.00
2022-10-10T10:47:14.294Z,3.20
2022-10-10T10:50:11.867Z,2.75
2022-10-10T10:52:58.858Z,3.00
2022-10-10T10:55:39.368Z,2.75
2022-10-10T10:59:04.928Z,2.10
2022-10-10T11:01:44.781Z,2.60
2022-10-10T11:05:20.701Z,3.10
2022-10-10T11:07:20.422Z,3.67
2022-10-10T11:10:09.234Z,3.00
2022-10-10T11:13:01.587Z,2.78
2022-10-10T11:16:05.332Z,2.88
2022-10-10T11:18:39.990Z,2.90
2022-10-10T11:21:13.257Z,2.67
2022-10-10T11:23:47.441Z,2.55
2022-10-10T11:26:23.523Z,2.50
2022-10-10T11:28:59.149Z,2.10
2022-10-10T11:31:52.525Z,2.70
2022-10-10T11:34:31.109Z,2.08
2022-10-10T11:37:04.331Z,2.63
2022-10-10T11:39:41.317Z,2.20
2022-10-10T11:42:16.060Z,2.67
2022-10-10T11:44:47.949Z,2.72
2022-10-10T11:47:37.788Z,2.72
2022-10-10T11:50:18.679Z,2.20
2022-10-10T11:53:00.335Z,2.45
2022-10-10T11:55:31.703Z,2.45
2022-10-10T11:58:09.548Z,2.33
2022-10-10T12:00:45.379Z,2.35
2022-10-10T12:03:12.881Z,2.08
2022-10-10T12:05:47.970Z,2.40
2022-10-10T12:08:19.922Z,2.30
2022-10-10T12:10:53.627Z,3.20
2022-10-10T12:15:56.531Z,2.40
2022-10-10T12:18:30.666Z,2.20
2022-10-10T12:21:09.921Z,2.10
2022-10-10T12:23:37.322Z,1.90
2022-10-10T12:26:04.712Z,2.10
2022-10-10T12:29:02.793Z,2.13
2022-10-10T12:31:32.167Z,2.00
2022-10-10T12:34:02.362Z,2.17
2022-10-10T12:36:31.063Z,2.17
2022-10-10T12:39:08.090Z,2.40
2022-10-10T12:41:56.845Z,1.92
2022-10-10T12:44:35.570Z,2.30
2022-10-10T12:47:14.329Z,1.90
2022-10-10T12:49:53.027Z,1.98
2022-10-10T12:52:48.982Z,2.25
2022-10-10T12:55:43.964Z,2.22
2022-10-10T12:58:26.606Z,2.10
2022-10-10T13:01:00.258Z,2.08
2022-10-10T13:03:32.730Z,2.00
2022-10-10T13:06:05.617Z,1.88
2022-10-10T13:08:34.667Z,1.97
2022-10-10T13:11:06.869Z,2.25
2022-10-10T13:13:35.931Z,2.30
2022-10-10T13:16:14.091Z,2.20
2022-10-10T13:18:58.221Z,2.13
2022-10-10T13:21:32.108Z,2.28
2022-10-10T13:24:04.812Z,2.30
2022-10-10T13:26:44.684Z,2.28
2022-10-10T13:29:25.132Z,1.67
2022-10-10T13:31:54.187Z,1.70
2022-10-10T13:34:30.674Z,1.90
2022-10-10T13:36:59.687Z,1.98
2022-10-10T13:39:28.504Z,1.85
2022-10-10T13:41:55.945Z,2.30
2022-10-10T13:44:47.171Z,1.85
2022-10-10T13:47:38.592Z,2.00
2022-10-10T13:50:24.499Z,1.90
2022-10-10T13:53:14.078Z,1.70
2022-10-10T13:55:41.148Z,2.85
2022-10-10T13:58:10.128Z,2.50
2022-10-10T14:00:38.037Z,1.98
2022-10-10T14:03:17.994Z,2.50
2022-10-10T14:05:46.380Z,1.85
2022-10-10T14:08:19.597Z,2.30
2022-10-10T14:11:05.358Z,2.05
2022-10-10T14:13:34.711Z,2.10
2022-10-10T14:16:20.024Z,2.40
2022-10-10T14:18:49.715Z,1.88
2022-10-10T14:21:16.223Z,1.98
2022-10-10T14:23:42.677Z,2.20
2022-10-10T14:26:20.554Z,2.20
2022-10-10T14:28:47.561Z,2.42
2022-10-10T14:31:14.280Z,2.00
2022-10-10T14:33:40.662Z,2.35
2022-10-10T14:36:07.434Z,2.42
2022-10-10T14:38:34.002Z,2.30
2022-10-10T14:41:02.980Z,2.20
2022-10-10T14:43:29.602Z,2.08
2022-10-10T14:45:58.401Z,2.20
2022-10-10T14:48:24.825Z,2.20
2022-10-10T14:50:51.731Z,1.90
2022-10-10T14:53:23.202Z,2.40
2022-10-10T14:55:55.315Z,2.33
2022-10-10T14:58:25.127Z,2.00
2022-10-10T15:00:53.050Z,1.70
2022-10-10T15:03:20.172Z,2.15
2022-10-10T15:05:48.526Z,2.55
2022-10-10T15:08:18.708Z,2.90
2022-10-10T15:10:46.474Z,3.15
2022-10-10T15:13:16.171Z,2.65
2022-10-10T15:15:42.689Z,2.28
2022-10-10T15:18:26.649Z,2.90
2022-10-10T15:20:55.627Z,4.47
2022-10-10T15:23:22.376Z,4.93
2022-10-10T15:25:51.063Z,5.20
2022-10-10T15:28:19.838Z,6.15
2022-10-10T15:30:46.766Z,4.55
2022-10-10T15:33:13.267Z,5.63
2022-10-10T15:36:03.972Z,8.13
2022-10-10T15:38:29.269Z,4.80
2022-10-10T15:41:00.536Z,4.50
2022-10-10T15:43:30.202Z,3.80
2022-10-10T15:45:58.748Z,3.92
2022-10-10T15:48:25.610Z,4.63
2022-10-10T15:50:52.171Z,4.38
2022-10-10T15:53:19.176Z,4.20
2022-10-10T15:55:46.898Z,3.35
2022-10-10T15:58:15.173Z,3.42
2022-10-10T16:00:43.482Z,3.40
2022-10-10T16:03:10.089Z,3.03
2022-10-10T16:05:38.846Z,2.88
2022-10-10T16:08:06.452Z,2.90
2022-10-10T16:10:41.041Z,2.65
2022-10-10T16:13:08.251Z,2.72
2022-10-10T16:15:35.153Z,3.63
2022-10-10T16:18:06.649Z,3.08
2022-10-10T16:20:33.203Z,4.22
2022-10-10T16:23:04.472Z,36.53
2022-10-10T16:25:30.894Z,24.55
2022-10-10T16:27:57.406Z,9.98
2022-10-10T16:30:24.004Z,13.10
2022-10-10T16:32:50.443Z,7.88
2022-10-10T16:35:17.028Z,7.25
2022-10-10T16:37:43.509Z,6.60
2022-10-10T16:40:12.762Z,6.57
2022-10-10T16:42:39.207Z,5.30
2022-10-10T16:45:06.530Z,4.68
2022-10-10T16:47:33.481Z,5.07
2022-10-10T16:49:59.969Z,5.03
2022-10-10T16:52:26.528Z,4.93
2022-10-10T16:54:52.984Z,5.60
2022-10-10T16:57:21.888Z,13.65
2022-10-10T16:59:48.522Z,11.15
2022-10-10T17:02:15.045Z,12.90
2022-10-10T17:04:41.557Z,11.95
2022-10-10T17:07:08.180Z,10.70
2022-10-10T17:09:34.620Z,9.90
2022-10-10T17:12:03.571Z,9.32
2022-10-10T17:14:30.063Z,9.25
2022-10-10T17:17:13.096Z,7.18
2022-10-10T17:19:40.229Z,5.90
2022-10-10T17:22:06.730Z,6.75
2022-10-10T17:24:33.236Z,7.68
2022-10-10T17:26:59.776Z,8.07
2022-10-10T17:29:26.269Z,9.75
2022-10-10T17:31:58.397Z,11.68
2022-10-10T17:34:27.153Z,12.95
2022-10-10T17:36:54.199Z,13.40
2022-10-10T17:39:20.616Z,12.20
2022-10-10T17:41:49.190Z,11.13
2022-10-10T17:44:15.920Z,9.35
2022-10-10T17:46:44.450Z,10.23
2022-10-10T17:49:11.710Z,8.35
2022-10-10T17:51:41.970Z,6.70
2022-10-10T17:54:10.108Z,6.35
2022-10-10T17:56:37.447Z,6.22
2022-10-10T17:59:06.418Z,4.35
2022-10-10T18:01:34.519Z,4.85
2022-10-10T18:04:02.020Z,5.35
2022-10-10T18:06:29.314Z,5.00
2022-10-10T18:08:56.687Z,5.80
2022-10-10T18:11:29.046Z,4.93
2022-10-10T18:14:00.138Z,4.57
2022-10-10T18:16:30.131Z,4.47
2022-10-10T18:19:00.399Z,4.80
2022-10-10T18:21:27.739Z,6.93
2022-10-10T18:23:54.942Z,6.35
2022-10-10T18:26:23.998Z,6.40
2022-10-10T18:28:53.790Z,6.82
2022-10-10T18:31:23.556Z,7.55
2022-10-10T18:33:50.434Z,9.00
2022-10-10T18:36:20.469Z,9.70
2022-10-10T18:38:47.431Z,11.07
2022-10-10T18:41:17.924Z,9.73
2022-10-10T18:43:45.142Z,7.07
2022-10-10T18:46:14.033Z,7.13
2022-10-10T18:48:41.663Z,7.63
2022-10-10T18:51:15.685Z,7.78
2022-10-10T18:53:45.267Z,6.47
2022-10-10T18:56:20.869Z,7.38
2022-10-10T18:58:50.412Z,7.88
2022-10-10T19:01:21.117Z,8.98
2022-10-10T19:03:50.868Z,8.18
2022-10-10T19:06:19.577Z,7.40
2022-10-10T19:08:46.459Z,7.50
2022-10-10T19:11:22.356Z,7.82
2022-10-10T19:13:49.234Z,7.93
2022-10-10T19:16:19.059Z,6.93
2022-10-10T19:18:48.273Z,7.00
2022-10-10T19:21:15.980Z,6.40
2022-10-10T19:23:47.834Z,6.20
2022-10-10T19:26:17.715Z,5.75
2022-10-10T19:28:46.903Z,5.43
2022-10-10T19:31:18.297Z,4.93
2022-10-10T19:33:45.999Z,5.07
2022-10-10T19:36:13.491Z,4.88
2022-10-10T19:38:44.650Z,4.97
2022-10-10T19:41:13.301Z,4.72
2022-10-10T19:43:44.949Z,4.25
2022-10-10T19:46:14.582Z,4.20
2022-10-10T19:48:41.808Z,4.15
2022-10-10T19:51:17.187Z,4.22
2022-10-10T19:53:44.121Z,3.70
2022-10-10T19:56:24.175Z,3.80
2022-10-10T19:58:56.282Z,4.18
2022-10-10T20:01:29.051Z,3.75
2022-10-10T20:03:56.829Z,4.30
2022-10-10T20:06:23.467Z,3.88
2022-10-10T20:08:50.116Z,4.82
2022-10-10T20:11:17.378Z,4.72
2022-10-10T20:13:46.143Z,5.05
2022-10-10T20:16:15.753Z,5.40
2022-10-10T20:18:46.518Z,5.68
2022-10-10T20:21:20.525Z,5.43
2022-10-10T20:23:50.979Z,5.22
2022-10-10T20:26:22.339Z,8.23
2022-10-10T20:28:56.866Z,7.97
2022-10-10T20:31:31.735Z,7.60
2022-10-10T20:34:02.583Z,6.68
2022-10-10T20:36:30.682Z,5.50
2022-10-10T20:39:02.063Z,4.82
2022-10-10T20:41:34.492Z,3.92
2022-10-10T20:44:06.233Z,4.45
2022-10-10T20:46:40.506Z,4.53
2022-10-10T20:49:11.831Z,4.32
2022-10-10T20:51:41.230Z,4.10
2022-10-10T20:54:10.088Z,3.40
2022-10-10T20:56:41.397Z,3.95
2022-10-10T20:59:10.743Z,4.15
2022-10-10T21:01:40.121Z,4.20
2022-10-10T21:04:10.375Z,4.20
2022-10-10T21:06:38.258Z,4.32
2022-10-10T21:09:07.754Z,3.97
2022-10-10T21:11:35.185Z,4.60
2022-10-10T21:14:04.663Z,4.93
2022-10-10T21:16:34.615Z,5.85
2022-10-10T21:19:07.323Z,4.53
2022-10-10T21:21:36.882Z,4.63
2022-10-10T21:24:11.123Z,4.07
2022-10-10T21:26:37.643Z,4.03
2022-10-10T21:29:08.226Z,4.30
2022-10-10T21:31:39.115Z,4.50
2022-10-10T21:34:07.573Z,4.20
2022-10-10T21:36:37.191Z,4.60
2022-10-10T21:39:06.861Z,4.20
2022-10-10T21:41:33.426Z,3.95
2022-10-10T21:44:00.330Z,3.42
2022-10-10T21:46:36.744Z,3.50
2022-10-10T21:49:11.198Z,3.50
2022-10-10T21:51:46.609Z,3.38
2022-10-10T21:54:16.058Z,2.92
2022-10-10T21:56:44.860Z,3.50
2022-10-10T21:59:11.739Z,3.00
2022-10-10T22:01:41.031Z,3.72
2022-10-10T22:04:09.856Z,3.80
2022-10-10T22:06:41.699Z,4.53
2022-10-10T22:09:13.398Z,5.45
2022-10-10T22:11:40.088Z,5.85
2022-10-10T22:14:06.540Z,5.57
2022-10-10T22:16:35.704Z,6.10
2022-10-10T22:19:02.225Z,6.00
2022-10-10T22:21:31.742Z,6.68
2022-10-10T22:24:03.540Z,7.43
2022-10-10T22:26:31.026Z,7.70
2022-10-10T22:28:57.800Z,7.38
2022-10-10T22:31:24.499Z,7.30
2022-10-10T22:33:51.073Z,7.03
2022-10-10T22:36:19.778Z,6.90
2022-10-10T22:38:48.540Z,6.97
2022-10-10T22:41:14.969Z,6.43
2022-10-10T22:43:43.878Z,5.90
2022-10-10T22:46:15.168Z,6.15
2022-10-10T22:48:41.722Z,6.45
2022-10-10T22:51:16.617Z,6.63
2022-10-10T22:53:47.310Z,7.85
2022-10-10T22:56:19.176Z,7.57
2022-10-10T22:58:47.361Z,7.43
2022-10-10T23:01:20.806Z,6.50
2022-10-10T23:03:47.475Z,6.20
2022-10-10T23:06:16.544Z,5.85
2022-10-10T23:08:42.954Z,6.30
2022-10-10T23:11:11.840Z,8.68
2022-10-10T23:13:38.341Z,7.13
2022-10-10T23:16:07.887Z,5.80
2022-10-10T23:18:34.641Z,5.07
2022-10-10T23:21:01.044Z,5.13
2022-10-10T23:23:30.119Z,4.18
2022-10-10T23:25:56.626Z,3.47
2022-10-10T23:28:26.281Z,2.95
2022-10-10T23:30:52.791Z,2.95
2022-10-10T23:33:19.219Z,2.85
2022-10-10T23:35:59.692Z,2.58
2022-10-10T23:38:26.686Z,2.60
2022-10-10T23:40:55.935Z,2.70
2022-10-10T23:43:26.249Z,2.80
2022-10-10T23:45:55.218Z,2.63
2022-10-10T23:48:21.963Z,2.60
2022-10-10T23:50:48.494Z,3.00
2022-10-10T23:53:16.135Z,2.78
2022-10-10T23:55:42.589Z,3.03
2022-10-10T23:58:09.477Z,3.20
